sensor_id;sensor_type;location;lat;lon;timestamp;pressure;altitude;pressure_sealevel;temperature;humidity
67697;BME280;54486;51.442;6.778;2023-05-22T00:01:24;101133.50;;;18.77;100.00
67697;BME280;54486;51.442;6.778;2023-05-22T00:03:56;101131.81;;;18.76;100.00
67697;BME280;54486;51.442;6.778;2023-05-22T00:06:23;101135.41;;;18.73;100.00
67697;BME280;54486;51.442;6.778;2023-05-22T00:08:51;101133.63;;;18.74;100.00
67697;BME280;54486;51.442;6.778;2023-05-22T00:11:18;101103.97;;;18.66;100.00
67697;BME280;54486;51.442;6.778;2023-05-22T00:13:45;101107.41;;;18.68;100.00
67697;BME280;54486;51.442;6.778;2023-05-22T00:16:12;101123.38;;;18.65;100.00
67697;BME280;54486;51.442;6.778;2023-05-22T00:18:40;101122.59;;;18.63;100.00
67697;BME280;54486;51.442;6.778;2023-05-22T00:21:08;101118.28;;;18.60;100.00
67697;BME280;54486;51.442;6.778;2023-05-22T00:23:36;101113.00;;;18.60;100.00
67697;BME280;54486;51.442;6.778;2023-05-22T00:26:03;101115.56;;;18.62;100.00
67697;BME280;54486;51.442;6.778;2023-05-22T00:28:30;101117.41;;;18.60;100.00
67697;BME280;54486;51.442;6.778;2023-05-22T00:30:58;101113.03;;;18.59;100.00
67697;BME280;54486;51.442;6.778;2023-05-22T00:33:28;101118.31;;;18.59;100.00
67697;BME280;54486;51.442;6.778;2023-05-22T00:36:00;101111.41;;;18.55;100.00
67697;BME280;54486;51.442;6.778;2023-05-22T00:38:32;101118.41;;;18.56;100.00
67697;BME280;54486;51.442;6.778;2023-05-22T00:41:02;101114.00;;;18.56;100.00
67697;BME280;54486;51.442;6.778;2023-05-22T00:43:29;101112.25;;;18.55;100.00
67697;BME280;54486;51.442;6.778;2023-05-22T00:45:57;101118.41;;;18.56;100.00
67697;BME280;54486;51.442;6.778;2023-05-22T00:48:24;101115.81;;;18.54;100.00
67697;BME280;54486;51.442;6.778;2023-05-22T00:50:56;101115.91;;;18.51;100.00
67697;BME280;54486;51.442;6.778;2023-05-22T00:53:27;101118.63;;;18.49;100.00
67697;BME280;54486;51.442;6.778;2023-05-22T00:55:56;101114.22;;;18.48;100.00
67697;BME280;54486;51.442;6.778;2023-05-22T00:58:25;101125.69;;;18.47;100.00
67697;BME280;54486;51.442;6.778;2023-05-22T01:00:53;101122.16;;;18.48;100.00
67697;BME280;54486;51.442;6.778;2023-05-22T01:03:21;101122.16;;;18.48;100.00
67697;BME280;54486;51.442;6.778;2023-05-22T01:05:53;101116.97;;;18.45;100.00
67697;BME280;54486;51.442;6.778;2023-05-22T01:08:22;101117.84;;;18.46;100.00
67697;BME280;54486;51.442;6.778;2023-05-22T01:10:54;101117.06;;;18.42;100.00
67697;BME280;54486;51.442;6.778;2023-05-22T01:16:23;101113.63;;;18.40;100.00
67697;BME280;54486;51.442;6.778;2023-05-22T01:21:39;101113.75;;;18.37;100.00
67697;BME280;54486;51.442;6.778;2023-05-22T01:30:46;101099.69;;;18.35;100.00
67697;BME280;54486;51.442;6.778;2023-05-22T01:33:16;101104.97;;;18.35;100.00
67697;BME280;54486;51.442;6.778;2023-05-22T01:35:47;101103.31;;;18.33;100.00
67697;BME280;54486;51.442;6.778;2023-05-22T01:38:20;101092.81;;;18.31;100.00
67697;BME280;54486;51.442;6.778;2023-05-22T01:40:49;101102.63;;;18.28;100.00
67697;BME280;54486;51.442;6.778;2023-05-22T01:43:17;101099.16;;;18.26;100.00
67697;BME280;54486;51.442;6.778;2023-05-22T01:45:44;101095.69;;;18.24;100.00
67697;BME280;54486;51.442;6.778;2023-05-22T01:48:14;101093.09;;;18.22;100.00
67697;BME280;54486;51.442;6.778;2023-05-22T01:50:43;101087.81;;;18.22;100.00
67697;BME280;54486;51.442;6.778;2023-05-22T01:53:23;101087.91;;;18.19;100.00
67697;BME280;54486;51.442;6.778;2023-05-22T01:55:56;101088.13;;;18.13;100.00
67697;BME280;54486;51.442;6.778;2023-05-22T01:58:36;101089.88;;;18.14;100.00
67697;BME280;54486;51.442;6.778;2023-05-22T02:01:07;101081.16;;;18.12;100.00
67697;BME280;54486;51.442;6.778;2023-05-22T02:03:35;101080.28;;;18.12;100.00
67697;BME280;54486;51.442;6.778;2023-05-22T02:06:06;101075.97;;;18.09;100.00
67697;BME280;54486;51.442;6.778;2023-05-22T02:08:37;101074.22;;;18.08;100.00
67697;BME280;54486;51.442;6.778;2023-05-22T02:11:06;101079.50;;;18.08;100.00
67697;BME280;54486;51.442;6.778;2023-05-22T02:13:34;101085.88;;;18.03;100.00
67697;BME280;54486;51.442;6.778;2023-05-22T02:16:02;101078.88;;;18.00;100.00
67697;BME280;54486;51.442;6.778;2023-05-22T02:18:31;101084.25;;;17.97;100.00
67697;BME280;54486;51.442;6.778;2023-05-22T02:20:59;101086.13;;;17.93;100.00
67697;BME280;54486;51.442;6.778;2023-05-22T02:23:26;101088.75;;;17.95;100.00
67697;BME280;54486;51.442;6.778;2023-05-22T02:25:55;101090.59;;;17.93;100.00
67697;BME280;54486;51.442;6.778;2023-05-22T02:28:22;101080.03;;;17.93;100.00
67697;BME280;54486;51.442;6.778;2023-05-22T02:30:49;101086.13;;;17.93;100.00
67697;BME280;54486;51.442;6.778;2023-05-22T02:33:17;101084.53;;;17.89;100.00
67697;BME280;54486;51.442;6.778;2023-05-22T02:35:44;101081.13;;;17.86;100.00
67697;BME280;54486;51.442;6.778;2023-05-22T02:38:11;101075.13;;;17.81;100.00
67697;BME280;54486;51.442;6.778;2023-05-22T02:40:39;101083.13;;;17.78;100.00
67697;BME280;54486;51.442;6.778;2023-05-22T02:43:06;101071.78;;;17.76;100.00
67697;BME280;54486;51.442;6.778;2023-05-22T02:45:33;101078.91;;;17.74;100.00
67697;BME280;54486;51.442;6.778;2023-05-22T02:48:00;101079.00;;;17.71;100.00
67697;BME280;54486;51.442;6.778;2023-05-22T02:50:29;101076.41;;;17.68;100.00
67697;BME280;54486;51.442;6.778;2023-05-22T02:52:56;101074.75;;;17.65;100.00
67697;BME280;54486;51.442;6.778;2023-05-22T02:55:23;101079.25;;;17.62;100.00
67697;BME280;54486;51.442;6.778;2023-05-22T02:57:50;101080.28;;;17.58;100.00
67697;BME280;54486;51.442;6.778;2023-05-22T03:00:18;101084.72;;;17.56;100.00
67697;BME280;54486;51.442;6.778;2023-05-22T03:02:45;101083.00;;;17.55;100.00
67697;BME280;54486;51.442;6.778;2023-05-22T03:05:13;101081.34;;;17.51;100.00
67697;BME280;54486;51.442;6.778;2023-05-22T03:07:44;101085.78;;;17.48;100.00
67697;BME280;54486;51.442;6.778;2023-05-22T03:10:14;101082.34;;;17.46;100.00
67697;BME280;54486;51.442;6.778;2023-05-22T03:12:41;101076.25;;;17.44;100.00
67697;BME280;54486;51.442;6.778;2023-05-22T03:15:09;101078.06;;;17.42;100.00
67697;BME280;54486;51.442;6.778;2023-05-22T03:17:37;101074.63;;;17.40;100.00
67697;BME280;54486;51.442;6.778;2023-05-22T03:20:04;101076.34;;;17.41;100.00
67697;BME280;54486;51.442;6.778;2023-05-22T03:22:32;101082.63;;;17.37;100.00
67697;BME280;54486;51.442;6.778;2023-05-22T03:25:00;101083.53;;;17.36;100.00
67697;BME280;54486;51.442;6.778;2023-05-22T03:27:27;101082.72;;;17.34;100.00
67697;BME280;54486;51.442;6.778;2023-05-22T03:29:54;101079.31;;;17.31;100.00
67697;BME280;54486;51.442;6.778;2023-05-22T03:32:21;101073.34;;;17.24;100.00
67697;BME280;54486;51.442;6.778;2023-05-22T03:34:49;101074.25;;;17.23;100.00
67697;BME280;54486;51.442;6.778;2023-05-22T03:37:16;101077.81;;;17.22;100.00
67697;BME280;54486;51.442;6.778;2023-05-22T03:39:43;101080.56;;;17.19;100.00
67697;BME280;54486;51.442;6.778;2023-05-22T03:42:10;101070.94;;;17.17;100.00
67697;BME280;54486;51.442;6.778;2023-05-22T03:44:40;101076.31;;;17.14;100.00
67697;BME280;54486;51.442;6.778;2023-05-22T03:47:07;101079.88;;;17.13;100.00
67697;BME280;54486;51.442;6.778;2023-05-22T03:49:34;101075.56;;;17.10;100.00
67697;BME280;54486;51.442;6.778;2023-05-22T03:52:04;101082.53;;;17.11;100.00
67697;BME280;54486;51.442;6.778;2023-05-22T03:54:31;101074.69;;;17.10;100.00
67697;BME280;54486;51.442;6.778;2023-05-22T03:56:58;101073.81;;;17.09;100.00
67697;BME280;54486;51.442;6.778;2023-05-22T03:59:25;101078.13;;;17.12;100.00
67697;BME280;54486;51.442;6.778;2023-05-22T04:01:53;101076.31;;;17.14;100.00
67697;BME280;54486;51.442;6.778;2023-05-22T04:04:20;101068.44;;;17.12;100.00
67697;BME280;54486;51.442;6.778;2023-05-22T04:06:47;101069.31;;;17.13;100.00
67697;BME280;54486;51.442;6.778;2023-05-22T04:09:15;101077.34;;;17.08;100.00
67697;BME280;54486;51.442;6.778;2023-05-22T04:11:44;101074.72;;;17.08;100.00
67697;BME280;54486;51.442;6.778;2023-05-22T04:14:12;101072.16;;;17.05;100.00
67697;BME280;54486;51.442;6.778;2023-05-22T04:16:39;101081.81;;;17.06;100.00
67697;BME280;54486;51.442;6.778;2023-05-22T04:19:06;101078.22;;;17.09;100.00
67697;BME280;54486;51.442;6.778;2023-05-22T04:21:35;101075.56;;;17.10;100.00
67697;BME280;54486;51.442;6.778;2023-05-22T04:24:04;101074.63;;;17.11;100.00
67697;BME280;54486;51.442;6.778;2023-05-22T04:26:36;101074.63;;;17.11;100.00
67697;BME280;54486;51.442;6.778;2023-05-22T04:29:06;101074.53;;;17.14;100.00
67697;BME280;54486;51.442;6.778;2023-05-22T04:31:36;101075.31;;;17.18;100.00
67697;BME280;54486;51.442;6.778;2023-05-22T04:34:03;101076.97;;;17.20;100.00
67697;BME280;54486;51.442;6.778;2023-05-22T04:36:31;101089.28;;;17.21;100.00
67697;BME280;54486;51.442;6.778;2023-05-22T04:38:58;101085.69;;;17.24;100.00
67697;BME280;54486;51.442;6.778;2023-05-22T04:41:26;101085.56;;;17.28;100.00
67697;BME280;54486;51.442;6.778;2023-05-22T04:43:53;101091.63;;;17.30;100.00
67697;BME280;54486;51.442;6.778;2023-05-22T04:46:21;101094.28;;;17.30;100.00
67697;BME280;54486;51.442;6.778;2023-05-22T04:48:48;101101.28;;;17.31;100.00
67697;BME280;54486;51.442;6.778;2023-05-22T04:51:16;101100.22;;;17.37;100.00
67697;BME280;54486;51.442;6.778;2023-05-22T04:53:44;101094.06;;;17.36;100.00
67697;BME280;54486;51.442;6.778;2023-05-22T04:56:12;101091.44;;;17.36;100.00
67697;BME280;54486;51.442;6.778;2023-05-22T04:58:47;101100.13;;;17.40;100.00
67697;BME280;54486;51.442;6.778;2023-05-22T05:01:15;101092.09;;;17.44;100.00
67697;BME280;54486;51.442;6.778;2023-05-22T05:03:44;101093.78;;;17.45;100.00
67697;BME280;54486;51.442;6.778;2023-05-22T05:06:12;101091.22;;;17.44;100.00
67697;BME280;54486;51.442;6.778;2023-05-22T05:08:39;101092.09;;;17.44;100.00
67697;BME280;54486;51.442;6.778;2023-05-22T05:11:08;101092.00;;;17.48;100.00
67697;BME280;54486;51.442;6.778;2023-05-22T05:13:36;101104.34;;;17.45;100.00
67697;BME280;54486;51.442;6.778;2023-05-22T05:16:03;101102.66;;;17.44;100.00
67697;BME280;54486;51.442;6.778;2023-05-22T05:18:31;101096.41;;;17.47;100.00
67697;BME280;54486;51.442;6.778;2023-05-22T05:20:58;101098.03;;;17.51;100.00
67697;BME280;54486;51.442;6.778;2023-05-22T05:23:26;101091.81;;;17.54;100.00
67697;BME280;54486;51.442;6.778;2023-05-22T05:25:53;101097.88;;;17.57;100.00
67697;BME280;54486;51.442;6.778;2023-05-22T05:28:21;101104.03;;;17.58;100.00
67697;BME280;54486;51.442;6.778;2023-05-22T05:30:48;101099.59;;;17.58;100.00
67697;BME280;54486;51.442;6.778;2023-05-22T05:33:14;101103.00;;;17.62;100.00
67697;BME280;54486;51.442;6.778;2023-05-22T05:35:42;101093.28;;;17.64;100.00
67697;BME280;54486;51.442;6.778;2023-05-22T05:38:09;101098.66;;;17.61;100.00
67697;BME280;54486;51.442;6.778;2023-05-22T05:40:36;101092.44;;;17.62;100.00
67697;BME280;54486;51.442;6.778;2023-05-22T05:43:04;101101.13;;;17.65;100.00
67697;BME280;54486;51.442;6.778;2023-05-22T05:45:33;101096.63;;;17.69;100.00
67697;BME280;54486;51.442;6.778;2023-05-22T05:48:00;101101.00;;;17.70;100.00
67697;BME280;54486;51.442;6.778;2023-05-22T05:50:28;101105.28;;;17.74;100.00
67697;BME280;54486;51.442;6.778;2023-05-22T05:53:07;101107.88;;;17.75;100.00
67697;BME280;54486;51.442;6.778;2023-05-22T05:55:34;101116.44;;;17.82;100.00
67697;BME280;54486;51.442;6.778;2023-05-22T05:58:01;101113.72;;;17.85;100.00
67697;BME280;54486;51.442;6.778;2023-05-22T06:00:28;101113.63;;;17.88;100.00
67697;BME280;54486;51.442;6.778;2023-05-22T06:02:55;101110.94;;;17.89;100.00
67697;BME280;54486;51.442;6.778;2023-05-22T06:05:23;101105.56;;;17.92;100.00
67697;BME280;54486;51.442;6.778;2023-05-22T06:07:50;101111.59;;;17.96;100.00
67697;BME280;54486;51.442;6.778;2023-05-22T06:10:17;101099.22;;;17.98;100.00
67697;BME280;54486;51.442;6.778;2023-05-22T06:12:44;101115.75;;;18.03;100.00
67697;BME280;54486;51.442;6.778;2023-05-22T06:15:11;101106.03;;;18.05;100.00
67697;BME280;54486;51.442;6.778;2023-05-22T06:17:39;101105.91;;;18.08;100.00
67697;BME280;54486;51.442;6.778;2023-05-22T06:20:07;101114.53;;;18.13;100.00
67697;BME280;54486;51.442;6.778;2023-05-22T06:22:35;101112.53;;;18.21;100.00
67697;BME280;54486;51.442;6.778;2023-05-22T06:25:02;101115.00;;;18.26;100.00
67697;BME280;54486;51.442;6.778;2023-05-22T06:27:29;101116.53;;;18.33;100.00
67697;BME280;54486;51.442;6.778;2023-05-22T06:29:57;101119.81;;;18.39;100.00
67697;BME280;54486;51.442;6.778;2023-05-22T06:32:24;101120.41;;;18.47;100.00
67697;BME280;54486;51.442;6.778;2023-05-22T06:34:51;101122.06;;;18.52;100.00
67697;BME280;54486;51.442;6.778;2023-05-22T06:37:19;101129.00;;;18.56;100.00
67697;BME280;54486;51.442;6.778;2023-05-22T06:39:46;101127.03;;;18.61;100.00
67697;BME280;54486;51.442;6.778;2023-05-22T06:42:13;101128.66;;;18.65;100.00
67697;BME280;54486;51.442;6.778;2023-05-22T06:44:41;101123.16;;;18.71;100.00
67697;BME280;54486;51.442;6.778;2023-05-22T06:47:08;101127.31;;;18.78;100.00
67697;BME280;54486;51.442;6.778;2023-05-22T06:49:35;101132.34;;;18.85;100.00
67697;BME280;54486;51.442;6.778;2023-05-22T06:52:02;101133.09;;;18.89;100.00
67697;BME280;54486;51.442;6.778;2023-05-22T06:54:31;101133.00;;;18.92;100.00
67697;BME280;54486;51.442;6.778;2023-05-22T06:56:58;101132.78;;;18.98;100.00
67697;BME280;54486;51.442;6.778;2023-05-22T06:59:25;101134.38;;;19.02;100.00
67697;BME280;54486;51.442;6.778;2023-05-22T07:01:52;101129.78;;;19.07;100.00
67697;BME280;54486;51.442;6.778;2023-05-22T07:04:21;101133.94;;;19.14;100.00
67697;BME280;54486;51.442;6.778;2023-05-22T07:06:48;101138.16;;;19.18;100.00
67697;BME280;54486;51.442;6.778;2023-05-22T07:09:15;101139.75;;;19.24;100.00
67697;BME280;54486;51.442;6.778;2023-05-22T07:11:44;101137.94;;;19.24;100.00
67697;BME280;54486;51.442;6.778;2023-05-22T07:14:11;101137.75;;;19.30;100.00
67697;BME280;54486;51.442;6.778;2023-05-22T07:16:39;101147.38;;;19.31;100.00
67697;BME280;54486;51.442;6.778;2023-05-22T07:19:07;101147.28;;;19.34;100.00
67697;BME280;54486;51.442;6.778;2023-05-22T07:21:34;101155.09;;;19.37;100.00
67697;BME280;54486;51.442;6.778;2023-05-22T07:24:02;101162.41;;;19.31;100.00
67697;BME280;54486;51.442;6.778;2023-05-22T07:26:35;101160.06;;;19.23;100.00
67697;BME280;54486;51.442;6.778;2023-05-22T07:29:02;101166.03;;;19.28;100.00
67697;BME280;54486;51.442;6.778;2023-05-22T07:31:30;101164.34;;;19.26;100.00
67697;BME280;54486;51.442;6.778;2023-05-22T07:33:59;101173.06;;;19.29;100.00
67697;BME280;54486;51.442;6.778;2023-05-22T07:36:26;101171.91;;;19.36;100.00
67697;BME280;54486;51.442;6.778;2023-05-22T07:38:54;101174.38;;;19.42;100.00
67697;BME280;54486;51.442;6.778;2023-05-22T07:41:21;101173.31;;;19.46;100.00
67697;BME280;54486;51.442;6.778;2023-05-22T07:43:49;101169.63;;;19.50;100.00
67697;BME280;54486;51.442;6.778;2023-05-22T07:46:15;101173.72;;;19.59;100.00
67697;BME280;54486;51.442;6.778;2023-05-22T07:48:43;101169.84;;;19.68;100.00
67697;BME280;54486;51.442;6.778;2023-05-22T07:51:10;101179.19;;;19.78;100.00
67697;BME280;54486;51.442;6.778;2023-05-22T07:53:39;101165.69;;;19.84;100.00
67697;BME280;54486;51.442;6.778;2023-05-22T07:56:06;101177.19;;;19.83;100.00
67697;BME280;54486;51.442;6.778;2023-05-22T07:58:33;101181.09;;;19.96;100.00
67697;BME280;54486;51.442;6.778;2023-05-22T08:01:00;101178.81;;;20.08;100.00
67697;BME280;54486;51.442;6.778;2023-05-22T08:03:28;101185.72;;;20.13;99.94
67697;BME280;54486;51.442;6.778;2023-05-22T08:05:55;101194.09;;;20.24;99.56
67697;BME280;54486;51.442;6.778;2023-05-22T08:08:22;101184.75;;;20.15;98.89
67697;BME280;54486;51.442;6.778;2023-05-22T08:10:50;101188.31;;;20.14;98.80
67697;BME280;54486;51.442;6.778;2023-05-22T08:13:30;101191.66;;;20.19;98.07
67697;BME280;54486;51.442;6.778;2023-05-22T08:15:57;101200.63;;;20.15;98.17
67697;BME280;54486;51.442;6.778;2023-05-22T08:18:27;101200.75;;;20.12;96.93
67697;BME280;54486;51.442;6.778;2023-05-22T08:20:55;101202.25;;;20.19;97.45
67697;BME280;54486;51.442;6.778;2023-05-22T08:23:22;101202.41;;;19.93;96.39
67697;BME280;54486;51.442;6.778;2023-05-22T08:25:50;101196.19;;;19.94;97.73
67697;BME280;54486;51.442;6.778;2023-05-22T08:28:17;101196.19;;;19.94;98.42
67697;BME280;54486;51.442;6.778;2023-05-22T08:30:44;101200.38;;;19.78;96.98
67697;BME280;54486;51.442;6.778;2023-05-22T08:33:12;101209.38;;;19.72;97.18
67697;BME280;54486;51.442;6.778;2023-05-22T08:35:39;101198.97;;;19.68;97.27
67697;BME280;54486;51.442;6.778;2023-05-22T08:38:06;101204.41;;;19.65;96.82
67697;BME280;54486;51.442;6.778;2023-05-22T08:40:35;101211.88;;;19.53;96.23
67697;BME280;54486;51.442;6.778;2023-05-22T08:43:08;101203.47;;;19.42;96.75
67697;BME280;54486;51.442;6.778;2023-05-22T08:45:35;101197.66;;;19.31;96.63
67697;BME280;54486;51.442;6.778;2023-05-22T08:48:04;101195.53;;;19.42;97.93
67697;BME280;54486;51.442;6.778;2023-05-22T08:50:40;101204.88;;;19.52;97.84
67697;BME280;54486;51.442;6.778;2023-05-22T08:53:10;101203.00;;;19.54;97.02
67697;BME280;54486;51.442;6.778;2023-05-22T08:55:38;101207.97;;;19.39;96.98
67697;BME280;54486;51.442;6.778;2023-05-22T08:58:07;101207.03;;;19.41;97.20
67697;BME280;54486;51.442;6.778;2023-05-22T09:00:34;101208.97;;;19.36;98.14
67697;BME280;54486;51.442;6.778;2023-05-22T09:03:03;101217.69;;;19.38;97.38
67697;BME280;54486;51.442;6.778;2023-05-22T09:05:32;101210.59;;;19.40;96.99
67697;BME280;54486;51.442;6.778;2023-05-22T09:08:01;101216.75;;;19.41;96.71
67697;BME280;54486;51.442;6.778;2023-05-22T09:10:45;101218.94;;;19.28;96.19
67697;BME280;54486;51.442;6.778;2023-05-22T09:13:23;101223.44;;;19.26;96.81
67697;BME280;54486;51.442;6.778;2023-05-22T09:15:50;101224.34;;;19.25;97.39
67697;BME280;54486;51.442;6.778;2023-05-22T09:18:17;101232.88;;;19.09;97.14
67697;BME280;54486;51.442;6.778;2023-05-22T09:20:45;101227.34;;;19.16;97.80
67697;BME280;54486;51.442;6.778;2023-05-22T09:23:12;101230.88;;;19.15;97.63
67697;BME280;54486;51.442;6.778;2023-05-22T09:25:41;101230.78;;;19.18;96.69
67697;BME280;54486;51.442;6.778;2023-05-22T09:28:12;101229.81;;;19.21;96.22
67697;BME280;54486;51.442;6.778;2023-05-22T09:30:40;101243.84;;;19.23;95.32
67697;BME280;54486;51.442;6.778;2023-05-22T09:33:11;101240.50;;;19.18;94.51
67697;BME280;54486;51.442;6.778;2023-05-22T09:35:39;101239.00;;;19.11;94.87
67697;BME280;54486;51.442;6.778;2023-05-22T09:38:09;101234.56;;;19.11;94.66
67697;BME280;54486;51.442;6.778;2023-05-22T09:40:39;101242.75;;;19.28;96.06
67697;BME280;54486;51.442;6.778;2023-05-22T09:43:09;101240.75;;;19.35;93.70
67697;BME280;54486;51.442;6.778;2023-05-22T09:45:37;101232.91;;;19.33;93.06
67697;BME280;54486;51.442;6.778;2023-05-22T09:48:05;101238.88;;;19.38;92.77
67697;BME280;54486;51.442;6.778;2023-05-22T09:50:37;101238.22;;;19.57;93.94
67697;BME280;54486;51.442;6.778;2023-05-22T09:53:09;101232.25;;;19.75;93.25
67697;BME280;54486;51.442;6.778;2023-05-22T09:55:37;101238.47;;;19.97;92.18
67697;BME280;54486;51.442;6.778;2023-05-22T09:58:05;101232.78;;;19.84;89.77
67697;BME280;54486;51.442;6.778;2023-05-22T10:00:35;101238.69;;;19.91;90.00
67697;BME280;54486;51.442;6.778;2023-05-22T10:03:10;101231.44;;;19.96;88.71
67697;BME280;54486;51.442;6.778;2023-05-22T10:05:48;101227.03;;;19.95;89.87
67697;BME280;54486;51.442;6.778;2023-05-22T10:08:26;101227.38;;;20.09;90.42
67697;BME280;54486;51.442;6.778;2023-05-22T10:10:53;101235.22;;;20.12;88.27
67697;BME280;54486;51.442;6.778;2023-05-22T10:13:23;101234.50;;;20.07;88.31
67697;BME280;54486;51.442;6.778;2023-05-22T10:15:52;101235.75;;;20.20;88.97
67697;BME280;54486;51.442;6.778;2023-05-22T10:18:20;101232.31;;;20.18;87.60
67697;BME280;54486;51.442;6.778;2023-05-22T10:20:48;101227.19;;;20.14;87.54
67697;BME280;54486;51.442;6.778;2023-05-22T10:23:16;101234.75;;;20.01;86.69
67697;BME280;54486;51.442;6.778;2023-05-22T10:25:44;101226.59;;;19.84;88.20
67697;BME280;54486;51.442;6.778;2023-05-22T10:28:18;101214.53;;;19.77;89.85
67697;BME280;54486;51.442;6.778;2023-05-22T10:33:47;101215.50;;;19.74;88.71
67697;BME280;54486;51.442;6.778;2023-05-22T10:36:35;101215.75;;;19.68;88.44
67697;BME280;54486;51.442;6.778;2023-05-22T10:41:38;101208.88;;;19.86;90.41
67697;BME280;54486;51.442;6.778;2023-05-22T10:44:06;101211.84;;;20.00;90.23
67697;BME280;54486;51.442;6.778;2023-05-22T10:46:32;101213.44;;;20.04;89.02
67697;BME280;54486;51.442;6.778;2023-05-22T10:49:01;101206.44;;;20.03;88.77
67697;BME280;54486;51.442;6.778;2023-05-22T10:51:28;101212.00;;;19.95;88.34
67697;BME280;54486;51.442;6.778;2023-05-22T10:53:59;101204.31;;;20.11;89.27
67697;BME280;54486;51.442;6.778;2023-05-22T10:56:34;101203.63;;;20.29;89.39
67697;BME280;54486;51.442;6.778;2023-05-22T10:59:04;101202.56;;;20.33;87.22
67697;BME280;54486;51.442;6.778;2023-05-22T11:01:33;101202.13;;;20.44;87.30
67697;BME280;54486;51.442;6.778;2023-05-22T11:04:09;101198.94;;;20.57;86.92
67697;BME280;54486;51.442;6.778;2023-05-22T11:07:02;101195.44;;;20.55;84.94
67697;BME280;54486;51.442;6.778;2023-05-22T11:09:43;101200.25;;;20.68;85.86
67697;BME280;54486;51.442;6.778;2023-05-22T11:12:24;101187.41;;;20.79;86.63
67697;BME280;54486;51.442;6.778;2023-05-22T11:17:29;101194.03;;;21.29;85.76
67697;BME280;54486;51.442;6.778;2023-05-22T11:22:49;101189.75;;;21.45;82.89
67697;BME280;54486;51.442;6.778;2023-05-22T11:25:18;101191.03;;;21.37;82.10
67697;BME280;54486;51.442;6.778;2023-05-22T11:27:47;101182.69;;;21.26;83.21
67697;BME280;54486;51.442;6.778;2023-05-22T11:30:14;101183.94;;;21.37;83.48
67697;BME280;54486;51.442;6.778;2023-05-22T11:32:43;101172.81;;;21.48;84.25
67697;BME280;54486;51.442;6.778;2023-05-22T11:35:16;101176.72;;;21.59;82.83
67697;BME280;54486;51.442;6.778;2023-05-22T11:37:43;101178.44;;;21.79;83.87
67697;BME280;54486;51.442;6.778;2023-05-22T11:40:14;101180.44;;;21.93;81.93
67697;BME280;54486;51.442;6.778;2023-05-22T11:42:41;101166.22;;;21.94;81.53
67697;BME280;54486;51.442;6.778;2023-05-22T11:45:08;101173.25;;;22.13;82.63
67697;BME280;54486;51.442;6.778;2023-05-22T11:47:37;101173.81;;;22.20;81.94
67697;BME280;54486;51.442;6.778;2023-05-22T11:50:07;101162.56;;;22.32;81.30
67697;BME280;54486;51.442;6.778;2023-05-22T11:52:36;101172.03;;;22.38;81.17
67697;BME280;54486;51.442;6.778;2023-05-22T11:55:06;101164.63;;;22.61;80.55
67697;BME280;54486;51.442;6.778;2023-05-22T11:57:34;101160.13;;;22.81;79.21
67697;BME280;54486;51.442;6.778;2023-05-22T12:00:06;101157.72;;;22.92;78.44
67697;BME280;54486;51.442;6.778;2023-05-22T12:02:34;101153.16;;;23.11;79.19
67697;BME280;54486;51.442;6.778;2023-05-22T12:05:01;101145.22;;;23.27;78.98
67697;BME280;54486;51.442;6.778;2023-05-22T12:07:28;101151.69;;;23.38;76.13
67697;BME280;54486;51.442;6.778;2023-05-22T12:09:56;101145.38;;;23.41;76.10
67697;BME280;54486;51.442;6.778;2023-05-22T12:12:24;101145.91;;;23.47;74.94
67697;BME280;54486;51.442;6.778;2023-05-22T12:14:51;101149.69;;;23.59;76.10
67697;BME280;54486;51.442;6.778;2023-05-22T12:17:18;101141.97;;;23.54;74.89
67697;BME280;54486;51.442;6.778;2023-05-22T12:19:46;101141.28;;;23.66;74.46
67697;BME280;54486;51.442;6.778;2023-05-22T12:22:13;101141.09;;;23.85;74.47
67697;BME280;54486;51.442;6.778;2023-05-22T12:24:42;101136.09;;;23.95;72.47
67697;BME280;54486;51.442;6.778;2023-05-22T12:27:13;101151.75;;;23.69;73.29
67697;BME280;54486;51.442;6.778;2023-05-22T12:29:41;101141.78;;;23.57;73.95
67697;BME280;54486;51.442;6.778;2023-05-22T12:32:10;101142.38;;;23.62;74.11
67697;BME280;54486;51.442;6.778;2023-05-22T12:34:43;101146.50;;;23.84;73.62
67697;BME280;54486;51.442;6.778;2023-05-22T12:37:23;101148.31;;;23.99;72.49
67697;BME280;54486;51.442;6.778;2023-05-22T12:39:58;101137.81;;;24.27;73.63
67697;BME280;54486;51.442;6.778;2023-05-22T12:42:27;101139.19;;;24.34;69.67
67697;BME280;54486;51.442;6.778;2023-05-22T12:44:56;101136.34;;;24.51;71.05
67697;BME280;54486;51.442;6.778;2023-05-22T12:47:24;101135.09;;;24.72;69.77
67697;BME280;54486;51.442;6.778;2023-05-22T12:49:51;101135.75;;;24.76;68.02
67697;BME280;54486;51.442;6.778;2023-05-22T12:52:19;101129.53;;;25.19;67.94
67697;BME280;54486;51.442;6.778;2023-05-22T12:54:45;101127.88;;;25.59;66.55
67697;BME280;54486;51.442;6.778;2023-05-22T12:57:14;101130.25;;;26.05;64.53
67697;BME280;54486;51.442;6.778;2023-05-22T12:59:42;101128.91;;;26.39;62.60
67697;BME280;54486;51.442;6.778;2023-05-22T13:02:09;101135.34;;;26.74;61.79
67697;BME280;54486;51.442;6.778;2023-05-22T13:04:36;101119.66;;;26.95;60.87
67697;BME280;54486;51.442;6.778;2023-05-22T13:07:03;101123.16;;;26.70;61.25
67697;BME280;54486;51.442;6.778;2023-05-22T13:09:31;101126.34;;;26.62;62.04
67697;BME280;54486;51.442;6.778;2023-05-22T13:11:58;101121.28;;;26.85;61.43
67697;BME280;54486;51.442;6.778;2023-05-22T13:14:25;101122.72;;;27.39;58.04